Time;durP1;ratioP1;P1;durP2;ratioP2;P2;SDS_P1;SDS_P2;PMS_P1;PMS_P2;Temp;Humidity;BMP_temperature;BMP_pressure;BME280_temperature;BME280_humidity;BME280_pressure;Samples;Min_cycle;Max_cycle;Signal;HPM_P1;HPM_P2
2021/12/18 00:01:06;;;;;;;19.15;15.35;;;3.90;99.90;;;;;;5032381;28;20210;-65
2021/12/18 00:03:33;;;;;;;19.92;15.70;;;3.80;99.90;;;;;;5031265;28;20233;-65
2021/12/18 00:06:00;;;;;;;18.85;14.40;;;3.90;99.90;;;;;;5033077;28;20197;-65
2021/12/18 00:08:27;;;;;;;16.25;13.20;;;3.90;99.90;;;;;;5032223;28;20279;-65
2021/12/18 00:10:55;;;;;;;19.42;14.23;;;3.90;99.90;;;;;;5031473;28;20217;-65
2021/12/18 00:13:22;;;;;;;19.65;15.55;;;3.80;99.90;;;;;;5032489;28;20226;-65
2021/12/18 00:15:50;;;;;;;17.85;15.15;;;3.80;99.90;;;;;;5032568;28;20229;-65
2021/12/18 00:18:17;;;;;;;17.67;13.98;;;3.80;99.90;;;;;;5031851;28;20664;-65
2021/12/18 00:20:45;;;;;;;19.17;15.02;;;3.80;99.90;;;;;;5032310;28;20878;-65
2021/12/18 00:23:12;;;;;;;19.20;15.35;;;3.80;99.90;;;;;;5031639;28;20312;-65
2021/12/18 00:25:39;;;;;;;20.50;15.40;;;3.80;99.90;;;;;;5031566;28;20713;-65
2021/12/18 00:28:06;;;;;;;18.90;14.07;;;3.80;99.90;;;;;;5032337;28;20677;-65
2021/12/18 00:30:34;;;;;;;21.02;15.70;;;3.80;99.90;;;;;;5031760;28;20301;-65
2021/12/18 00:33:02;;;;;;;19.55;13.98;;;3.80;99.90;;;;;;5031129;28;20260;-65
2021/12/18 00:35:29;;;;;;;19.92;14.32;;;3.90;99.90;;;;;;5031932;28;20214;-65
2021/12/18 00:37:56;;;;;;;19.58;14.82;;;3.80;99.90;;;;;;5031742;28;20222;-65
2021/12/18 00:40:25;;;;;;;19.65;14.05;;;3.80;99.90;;;;;;5031586;28;20598;-65
2021/12/18 00:42:58;;;;;;;19.10;14.18;;;3.80;99.90;;;;;;5030987;28;20595;-65
2021/12/18 00:45:25;;;;;;;17.33;13.30;;;3.80;99.90;;;;;;5031875;28;20256;-65
2021/12/18 00:47:52;;;;;;;17.10;14.38;;;3.80;99.90;;;;;;5030663;28;20209;-65
2021/12/18 00:50:23;;;;;;;22.02;15.18;;;3.80;99.90;;;;;;5031933;28;20210;-65
2021/12/18 00:52:50;;;;;;;18.77;14.82;;;3.80;99.90;;;;;;5030656;28;20236;-65
2021/12/18 00:55:19;;;;;;;20.30;15.25;;;3.80;99.90;;;;;;5031407;28;20213;-65
2021/12/18 00:57:46;;;;;;;18.40;13.27;;;3.80;99.90;;;;;;5031395;28;20232;-65
2021/12/18 01:00:21;;;;;;;18.65;13.80;;;3.70;99.90;;;;;;5031475;28;20202;-64
2021/12/18 01:02:48;;;;;;;18.30;14.10;;;3.70;99.90;;;;;;5030234;28;20271;-65
2021/12/18 01:05:15;;;;;;;20.00;14.82;;;3.60;99.90;;;;;;5031784;28;20296;-65
2021/12/18 01:07:44;;;;;;;18.23;13.82;;;3.60;99.90;;;;;;5030818;28;20205;-65
2021/12/18 01:10:27;;;;;;;16.83;13.32;;;3.50;99.90;;;;;;5030895;28;20672;-64
2021/12/18 01:12:57;;;;;;;18.67;13.52;;;3.50;99.90;;;;;;5030930;28;20697;-64
2021/12/18 01:15:29;;;;;;;17.30;13.25;;;3.40;99.90;;;;;;5031297;28;20206;-64
2021/12/18 01:23:27;;;;;;;18.20;13.65;;;3.30;99.90;;;;;;5030507;28;20259;-65
2021/12/18 01:25:55;;;;;;;17.00;13.32;;;3.30;99.90;;;;;;5030575;28;20201;-65
2021/12/18 01:28:22;;;;;;;20.80;14.07;;;3.30;99.90;;;;;;5031410;28;20217;-65
2021/12/18 01:30:49;;;;;;;17.23;12.65;;;3.20;99.90;;;;;;5030718;28;20214;-65
2021/12/18 01:33:16;;;;;;;17.65;14.07;;;3.20;99.90;;;;;;5029666;28;20234;-65
2021/12/18 01:35:43;;;;;;;19.77;13.80;;;3.20;99.90;;;;;;5030949;28;20665;-65
2021/12/18 01:38:11;;;;;;;18.52;13.80;;;3.10;99.90;;;;;;5030488;28;20229;-65
2021/12/18 01:40:39;;;;;;;17.77;14.20;;;3.10;99.90;;;;;;5029998;28;20673;-64
2021/12/18 01:51:48;;;;;;;19.58;13.70;;;3.10;99.90;;;;;;4991780;28;20202;-65
2021/12/18 01:54:16;;;;;;;20.02;16.45;;;3.10;99.90;;;;;;5030438;28;20669;-65
2021/12/18 01:56:44;;;;;;;19.45;14.05;;;3.10;99.90;;;;;;5030057;28;20700;-65
2021/12/18 01:59:11;;;;;;;19.70;14.88;;;3.10;99.90;;;;;;5031042;28;20212;-65
2021/12/18 02:01:38;;;;;;;19.50;14.30;;;3.10;99.90;;;;;;5029592;28;20205;-65
2021/12/18 02:04:05;;;;;;;21.50;14.70;;;3.10;99.90;;;;;;5030199;28;20233;-65
2021/12/18 02:06:32;;;;;;;18.55;14.93;;;3.10;99.90;;;;;;5030672;28;20302;-65
2021/12/18 02:08:59;;;;;;;20.50;14.70;;;3.10;99.90;;;;;;5030269;28;20205;-65
2021/12/18 02:11:30;;;;;;;17.38;13.40;;;3.10;99.90;;;;;;5029898;28;20560;-65
2021/12/18 02:14:08;;;;;;;17.65;14.43;;;3.10;99.90;;;;;;5030123;28;20225;-65
2021/12/18 02:22:16;;;;;;;19.48;15.00;;;3.00;99.90;;;;;;5076516;22;20228;-95
2021/12/18 02:24:44;;;;;;;20.35;15.88;;;3.00;99.90;;;;;;5086971;28;20194;-96
2021/12/18 02:27:11;;;;;;;21.48;16.02;;;3.00;99.90;;;;;;5097232;28;20219;-96
2021/12/18 02:29:39;;;;;;;21.88;15.00;;;3.00;99.90;;;;;;5097395;28;20194;-95
2021/12/18 02:32:09;;;;;;;20.52;14.98;;;3.00;99.90;;;;;;5096933;28;20208;-95
2021/12/18 02:34:38;;;;;;;19.67;15.68;;;3.00;99.90;;;;;;5097238;28;20184;-94
2021/12/18 02:37:08;;;;;;;20.92;15.80;;;3.00;99.90;;;;;;5097172;28;20223;-95
2021/12/18 02:39:55;;;;;;;20.42;15.05;;;3.00;99.90;;;;;;5097078;28;20176;-94
2021/12/18 02:42:23;;;;;;;18.92;13.70;;;3.00;99.90;;;;;;5096726;28;20208;-94
2021/12/18 02:44:51;;;;;;;19.95;14.50;;;3.00;99.90;;;;;;5097011;28;20196;-95
2021/12/18 02:47:18;;;;;;;20.08;14.48;;;2.90;99.90;;;;;;5096696;28;20206;-95
2021/12/18 02:49:47;;;;;;;20.70;15.45;;;2.80;99.90;;;;;;5097048;28;20184;-94
2021/12/18 02:52:14;;;;;;;20.50;14.75;;;2.70;99.90;;;;;;5096491;28;20295;-95
2021/12/18 02:54:43;;;;;;;19.77;16.02;;;2.70;99.90;;;;;;5096811;28;20248;-95
2021/12/18 02:57:12;;;;;;;20.63;15.20;;;2.80;99.90;;;;;;5096556;28;20275;-95
2021/12/18 02:59:46;;;;;;;23.02;15.38;;;2.70;99.90;;;;;;5097039;28;20185;-95
2021/12/18 03:02:13;;;;;;;20.38;15.02;;;2.70;99.90;;;;;;5096303;28;20267;-94
2021/12/18 03:04:43;;;;;;;19.90;15.18;;;2.70;99.90;;;;;;5096865;28;20223;-95
2021/12/18 03:07:12;;;;;;;17.00;13.10;;;2.70;99.90;;;;;;5096771;28;20192;-94
2021/12/18 03:18:57;;;;;;;21.85;14.60;;;2.60;99.90;;;;;;5097184;28;20201;-95
2021/12/18 03:23:40;;;;;;;21.98;15.25;;;2.60;99.90;;;;;;5096614;28;20215;-94
2021/12/18 03:26:07;;;;;;;23.30;15.45;;;2.60;99.90;;;;;;5099619;28;20211;-95
2021/12/18 03:28:36;;;;;;;23.30;15.27;;;2.60;99.90;;;;;;5100254;28;20211;-93
2021/12/18 03:31:02;;;;;;;23.90;16.00;;;2.70;99.90;;;;;;5100036;28;20272;-94
2021/12/18 03:33:29;;;;;;;25.30;16.50;;;2.70;99.90;;;;;;5099639;28;20196;-94
2021/12/18 03:35:56;;;;;;;21.80;16.27;;;2.50;99.90;;;;;;5100170;28;20184;-95
2021/12/18 03:38:24;;;;;;;23.35;16.17;;;2.50;99.90;;;;;;5099783;28;20212;-95
2021/12/18 03:40:51;;;;;;;23.38;14.65;;;2.40;99.90;;;;;;5100165;28;20215;-94
2021/12/18 03:43:18;;;;;;;22.92;16.27;;;2.40;99.90;;;;;;5099716;28;20208;-95
2021/12/18 03:45:46;;;;;;;25.85;17.08;;;2.30;99.90;;;;;;5100206;28;20184;-95
2021/12/18 03:48:13;;;;;;;21.98;14.68;;;2.30;99.90;;;;;;5099873;28;20199;-95
2021/12/18 03:50:40;;;;;;;24.55;14.55;;;2.30;99.90;;;;;;5099981;28;20252;-95
2021/12/18 03:53:07;;;;;;;26.33;16.52;;;2.20;99.90;;;;;;5099592;28;20268;-95
2021/12/18 03:55:33;;;;;;;28.33;16.02;;;2.10;99.90;;;;;;5099972;28;20198;-94
2021/12/18 03:58:00;;;;;;;22.17;13.10;;;2.00;99.90;;;;;;5099338;28;20216;-94
2021/12/18 04:00:27;;;;;;;26.80;16.05;;;2.00;99.90;;;;;;5100000;28;20219;-94
2021/12/18 04:02:55;;;;;;;24.58;15.85;;;1.90;99.90;;;;;;5099091;28;20284;-94
2021/12/18 04:05:23;;;;;;;25.35;15.70;;;2.00;99.90;;;;;;5099360;28;20259;-93
2021/12/18 04:07:50;;;;;;;25.52;16.10;;;1.90;99.90;;;;;;5099479;28;20200;-94
2021/12/18 04:10:19;;;;;;;24.08;14.88;;;1.80;99.90;;;;;;5099496;28;20192;-94
2021/12/18 04:12:49;;;;;;;27.55;16.52;;;1.90;99.90;;;;;;5098999;28;20204;-95
2021/12/18 04:15:16;;;;;;;23.80;15.32;;;1.80;99.90;;;;;;5099648;28;20180;-94
2021/12/18 04:17:43;;;;;;;25.83;14.70;;;1.90;99.90;;;;;;5098878;28;20226;-95
2021/12/18 04:20:12;;;;;;;25.33;15.27;;;1.90;99.90;;;;;;5099602;28;20195;-94
2021/12/18 04:22:39;;;;;;;23.17;15.27;;;1.90;99.90;;;;;;5080536;22;20702;-69
2021/12/18 04:25:06;;;;;;;22.67;13.95;;;2.00;99.90;;;;;;5052202;28;20201;-69
2021/12/18 04:27:33;;;;;;;24.27;15.38;;;2.00;99.90;;;;;;5051979;28;20228;-69
2021/12/18 04:30:00;;;;;;;21.25;13.85;;;2.10;99.90;;;;;;5052325;28;20197;-69
2021/12/18 04:32:27;;;;;;;25.88;15.32;;;2.20;99.90;;;;;;5051163;28;20216;-69
2021/12/18 04:34:54;;;;;;;22.52;15.10;;;2.20;99.90;;;;;;5051960;28;20201;-69
2021/12/18 04:37:23;;;;;;;21.63;14.35;;;2.10;99.90;;;;;;5051736;28;20221;-69
2021/12/18 04:39:49;;;;;;;22.30;14.23;;;2.00;99.90;;;;;;5051629;28;20668;-69
2021/12/18 04:42:16;;;;;;;21.13;13.75;;;2.00;99.90;;;;;;5051900;28;20201;-69
2021/12/18 04:44:43;;;;;;;24.15;14.70;;;1.80;99.90;;;;;;5051900;28;20201;-69
2021/12/18 04:47:10;;;;;;;23.13;14.68;;;1.80;99.90;;;;;;5051743;28;20556;-69
2021/12/18 04:49:36;;;;;;;22.63;13.77;;;1.80;99.90;;;;;;5052177;28;20201;-70
2021/12/18 04:52:04;;;;;;;21.83;14.63;;;1.80;99.90;;;;;;5051213;28;20338;-69
2021/12/18 04:54:32;;;;;;;20.52;13.38;;;1.80;99.90;;;;;;5052102;28;20211;-69
2021/12/18 04:56:59;;;;;;;23.35;13.57;;;1.80;99.90;;;;;;5053412;28;20239;-69
2021/12/18 04:59:26;;;;;;;22.05;14.80;;;1.80;99.90;;;;;;5052555;28;20201;-69
2021/12/18 05:01:53;;;;;;;21.42;14.15;;;1.80;99.90;;;;;;5050512;28;20209;-69
2021/12/18 05:04:20;;;;;;;27.67;13.43;;;1.80;99.90;;;;;;5051886;28;20217;-69
2021/12/18 05:06:48;;;;;;;24.48;15.23;;;1.80;99.90;;;;;;5051887;28;20259;-69
2021/12/18 05:09:16;;;;;;;21.77;14.10;;;1.80;99.90;;;;;;5051920;28;20235;-69
2021/12/18 05:11:45;;;;;;;23.88;14.15;;;1.80;99.90;;;;;;5050708;28;20580;-69
2021/12/18 05:14:12;;;;;;;19.55;13.18;;;1.70;99.90;;;;;;5051520;28;20217;-69
2021/12/18 05:16:39;;;;;;;18.20;12.43;;;1.70;99.90;;;;;;5051206;28;20201;-69
2021/12/18 05:19:06;;;;;;;20.08;12.48;;;1.60;99.90;;;;;;5050834;28;20225;-69
2021/12/18 05:21:33;;;;;;;26.83;14.82;;;1.60;99.90;;;;;;5051065;28;20212;-69
2021/12/18 05:23:59;;;;;;;23.02;13.15;;;1.50;99.90;;;;;;5050538;28;20754;-69
2021/12/18 05:26:26;;;;;;;20.80;12.80;;;1.40;99.90;;;;;;5035803;28;20676;-69
2021/12/18 05:28:55;;;;;;;20.08;13.35;;;1.40;99.90;;;;;;5044592;28;20194;-69
2021/12/18 05:31:22;;;;;;;19.67;12.50;;;1.40;99.90;;;;;;5049004;28;20212;-69
2021/12/18 05:33:53;;;;;;;24.40;13.57;;;1.40;99.90;;;;;;5044538;28;20248;-69
2021/12/18 05:36:33;;;;;;;23.23;14.02;;;1.50;99.90;;;;;;5050758;28;20263;-69
2021/12/18 05:39:01;;;;;;;22.60;13.57;;;1.50;99.90;;;;;;5049651;28;20216;-70
2021/12/18 05:41:28;;;;;;;21.55;13.30;;;1.60;99.90;;;;;;5036139;28;20260;-69
2021/12/18 05:43:57;;;;;;;21.85;14.32;;;1.60;99.90;;;;;;5030012;28;20621;-69
2021/12/18 05:46:24;;;;;;;22.00;14.25;;;1.60;99.90;;;;;;5029969;28;20206;-69
2021/12/18 05:48:51;;;;;;;21.02;13.40;;;1.60;99.90;;;;;;5027594;28;20197;-69
2021/12/18 05:51:18;;;;;;;22.77;13.93;;;1.60;99.90;;;;;;5029320;28;20201;-69
2021/12/18 05:53:45;;;;;;;20.77;12.43;;;1.60;99.90;;;;;;5029026;28;20218;-69
2021/12/18 05:56:12;;;;;;;21.63;12.82;;;1.50;99.90;;;;;;5029399;28;20300;-69
2021/12/18 05:58:41;;;;;;;21.80;13.10;;;1.50;99.90;;;;;;5030167;28;20225;-69
2021/12/18 06:01:09;;;;;;;25.75;11.85;;;1.50;99.90;;;;;;5029167;28;20217;-69
2021/12/18 06:03:35;;;;;;;17.40;11.95;;;1.50;99.90;;;;;;5028740;28;20315;-69
2021/12/18 06:06:02;;;;;;;20.67;12.43;;;1.50;99.90;;;;;;5029921;28;20202;-69
2021/12/18 06:08:32;;;;;;;19.20;11.52;;;1.50;99.90;;;;;;5029499;28;20229;-69
2021/12/18 06:11:04;;;;;;;18.50;11.88;;;1.50;99.90;;;;;;5029024;28;20205;-70
2021/12/18 06:13:31;;;;;;;18.75;12.30;;;1.50;99.90;;;;;;5029084;28;20241;-69
2021/12/18 06:15:58;;;;;;;21.25;12.90;;;1.60;99.90;;;;;;5029261;28;20205;-69
2021/12/18 06:18:26;;;;;;;19.50;13.15;;;1.50;99.90;;;;;;5028649;28;20747;-69
2021/12/18 06:20:53;;;;;;;19.73;11.35;;;1.50;99.90;;;;;;5028711;28;20198;-69
2021/12/18 06:23:20;;;;;;;23.15;12.77;;;1.50;99.90;;;;;;5029096;28;20236;-69
2021/12/18 06:25:46;;;;;;;22.92;14.18;;;1.50;99.90;;;;;;5030700;28;20204;-69
2021/12/18 06:28:13;;;;;;;16.67;11.57;;;1.60;99.90;;;;;;5049791;28;20197;-69
2021/12/18 06:30:40;;;;;;;21.83;13.32;;;1.60;99.90;;;;;;5049355;28;20196;-69
2021/12/18 06:33:06;;;;;;;20.92;13.40;;;1.60;99.90;;;;;;5047094;28;20228;-69
2021/12/18 06:35:35;;;;;;;21.77;13.75;;;1.60;99.90;;;;;;5049537;28;20209;-69
2021/12/18 06:38:02;;;;;;;22.83;14.23;;;1.60;99.90;;;;;;5048279;28;20224;-69
2021/12/18 06:40:28;;;;;;;18.85;12.90;;;1.50;99.90;;;;;;5049600;28;20220;-70
2021/12/18 06:42:55;;;;;;;19.50;13.95;;;1.50;99.90;;;;;;5047913;28;20570;-69
2021/12/18 06:45:22;;;;;;;21.38;14.18;;;1.50;99.90;;;;;;5049447;28;20209;-70
2021/12/18 06:47:49;;;;;;;21.05;13.30;;;1.50;99.90;;;;;;5046239;28;20212;-69
2021/12/18 06:50:15;;;;;;;18.60;11.82;;;1.50;99.90;;;;;;5049448;28;20607;-69
2021/12/18 06:52:43;;;;;;;20.52;13.10;;;1.50;99.90;;;;;;5048218;28;20274;-69
2021/12/18 06:55:10;;;;;;;18.55;12.32;;;1.50;99.90;;;;;;5048809;28;20209;-69
2021/12/18 06:57:37;;;;;;;17.88;13.13;;;1.50;99.90;;;;;;5049245;28;20331;-70
2021/12/18 07:00:07;;;;;;;16.35;10.75;;;1.50;99.90;;;;;;5049579;28;20209;-69
2021/12/18 07:02:34;;;;;;;21.15;13.50;;;1.50;99.90;;;;;;5010716;28;20229;-69
2021/12/18 07:05:01;;;;;;;16.27;12.07;;;1.50;99.90;;;;;;5011558;28;20210;-70
2021/12/18 07:07:27;;;;;;;17.85;10.95;;;1.50;99.90;;;;;;5012298;28;20210;-70
2021/12/18 07:09:55;;;;;;;16.73;9.57;;;1.50;99.90;;;;;;5012606;28;20806;-71
2021/12/18 07:12:22;;;;;;;17.38;11.05;;;1.50;99.90;;;;;;5011433;28;20218;-71
2021/12/18 07:14:49;;;;;;;19.30;12.00;;;1.50;99.90;;;;;;5012385;28;20708;-71
2021/12/18 07:17:15;;;;;;;16.55;11.50;;;1.50;99.90;;;;;;5011651;28;20284;-70
2021/12/18 07:19:42;;;;;;;17.90;10.80;;;1.50;99.90;;;;;;5012916;28;20230;-70
2021/12/18 07:22:09;;;;;;;18.05;10.48;;;1.60;99.90;;;;;;5012347;28;20378;-70
2021/12/18 07:24:35;;;;;;;16.17;10.10;;;1.50;99.90;;;;;;5012528;28;20210;-70
2021/12/18 07:27:04;;;;;;;17.38;11.90;;;1.60;99.90;;;;;;5011964;28;20210;-70
2021/12/18 07:29:31;;;;;;;18.98;12.43;;;1.60;99.90;;;;;;5012973;28;20202;-69
2021/12/18 07:31:58;;;;;;;21.63;11.68;;;1.60;99.90;;;;;;5011196;28;20205;-70
2021/12/18 07:34:24;;;;;;;15.70;10.45;;;1.60;99.90;;;;;;5013002;28;20233;-70
2021/12/18 07:36:51;;;;;;;15.23;10.15;;;1.60;99.90;;;;;;5012820;28;20215;-69
2021/12/18 07:39:18;;;;;;;17.45;10.68;;;1.60;99.90;;;;;;5012411;28;20223;-68
2021/12/18 07:41:45;;;;;;;18.50;10.82;;;1.70;99.90;;;;;;5010416;28;20613;-70
2021/12/18 07:44:13;;;;;;;18.05;10.77;;;1.70;99.90;;;;;;5012635;28;20225;-69
2021/12/18 07:46:40;;;;;;;17.52;11.00;;;1.80;99.90;;;;;;5012239;28;20213;-70
2021/12/18 07:49:08;;;;;;;15.00;10.23;;;1.80;99.90;;;;;;5012126;28;20218;-70
2021/12/18 07:51:36;;;;;;;14.68;9.95;;;1.80;99.90;;;;;;5012307;28;20926;-70
2021/12/18 07:54:04;;;;;;;17.85;10.25;;;1.80;99.90;;;;;;5011676;28;20234;-71
2021/12/18 07:56:31;;;;;;;14.60;10.77;;;1.80;99.90;;;;;;5012342;28;20230;-70
2021/12/18 07:58:58;;;;;;;16.30;10.13;;;1.80;99.90;;;;;;5011998;28;20218;-71
2021/12/18 08:01:27;;;;;;;14.23;9.52;;;1.80;99.90;;;;;;5030570;28;20258;-70
2021/12/18 08:03:54;;;;;;;16.00;9.48;;;1.90;99.90;;;;;;5049317;28;20221;-70
2021/12/18 08:06:21;;;;;;;20.27;11.77;;;1.90;99.90;;;;;;5052056;28;20201;-71
2021/12/18 08:08:48;;;;;;;17.88;11.40;;;1.90;99.90;;;;;;5049910;28;20239;-70
2021/12/18 08:11:15;;;;;;;16.52;11.57;;;1.90;99.90;;;;;;5049637;28;20565;-69
2021/12/18 08:13:42;;;;;;;17.10;10.50;;;1.90;99.90;;;;;;5030733;28;20222;-70
2021/12/18 08:16:09;;;;;;;15.60;9.85;;;2.00;99.90;;;;;;5024878;28;20688;-71
2021/12/18 08:18:37;;;;;;;16.83;10.98;;;2.00;99.90;;;;;;5050920;28;20243;-70
2021/12/18 08:21:03;;;;;;;16.77;9.93;;;2.00;99.90;;;;;;5050219;28;20212;-71
2021/12/18 08:23:30;;;;;;;16.20;10.65;;;2.10;99.90;;;;;;5050393;28;20628;-70
2021/12/18 08:25:57;;;;;;;17.20;10.00;;;2.10;99.90;;;;;;5050371;28;20224;-70
2021/12/18 08:28:24;;;;;;;18.50;11.27;;;2.20;99.90;;;;;;5013932;28;20682;-70
2021/12/18 08:30:50;;;;;;;14.98;10.35;;;2.20;99.90;;;;;;5017535;28;20198;-69
2021/12/18 08:33:17;;;;;;;16.65;10.10;;;2.20;99.90;;;;;;5050617;28;20312;-70
2021/12/18 08:35:45;;;;;;;14.68;10.48;;;2.10;99.90;;;;;;5050942;28;20209;-70
2021/12/18 08:38:12;;;;;;;16.67;9.98;;;2.20;99.90;;;;;;5045441;28;20201;-70
2021/12/18 08:40:41;;;;;;;15.77;10.45;;;2.20;99.90;;;;;;5012556;28;20290;-71
2021/12/18 08:43:09;;;;;;;18.05;10.75;;;2.20;99.90;;;;;;5009862;28;20717;-70
2021/12/18 08:45:36;;;;;;;18.33;11.07;;;2.30;99.90;;;;;;5012365;28;20195;-70
2021/12/18 08:48:04;;;;;;;18.63;11.77;;;2.30;99.90;;;;;;5050035;28;20205;-71
2021/12/18 08:50:30;;;;;;;15.55;10.57;;;2.20;99.90;;;;;;5041680;28;20209;-70
2021/12/18 08:52:59;;;;;;;13.30;9.88;;;2.30;99.90;;;;;;5049410;28;20229;-71
2021/12/18 08:55:25;;;;;;;16.48;9.95;;;2.30;99.90;;;;;;5050311;28;20618;-70
2021/12/18 08:57:52;;;;;;;15.63;8.90;;;2.20;99.90;;;;;;5050245;28;20683;-69
2021/12/18 09:00:21;;;;;;;16.60;9.82;;;2.20;99.90;;;;;;5050501;28;20597;-70
2021/12/18 09:02:50;;;;;;;13.63;9.15;;;2.20;99.90;;;;;;5049362;28;20223;-70
2021/12/18 09:05:17;;;;;;;14.13;9.38;;;2.20;99.90;;;;;;5027458;28;20195;-72
2021/12/18 09:07:44;;;;;;;12.75;9.73;;;2.10;99.90;;;;;;5042939;28;20673;-72
2021/12/18 09:10:14;;;;;;;13.25;9.95;;;2.10;99.90;;;;;;5050693;28;20216;-71
2021/12/18 09:12:40;;;;;;;16.98;9.65;;;2.10;99.90;;;;;;5048773;28;20751;-71
2021/12/18 09:15:08;;;;;;;17.00;10.05;;;2.10;99.90;;;;;;5050097;28;20205;-71
2021/12/18 09:17:35;;;;;;;16.85;10.75;;;2.10;99.90;;;;;;5050077;28;20209;-72
2021/12/18 09:20:02;;;;;;;14.02;9.90;;;2.10;99.90;;;;;;5050261;28;20225;-72
2021/12/18 09:22:28;;;;;;;15.38;10.15;;;2.10;99.90;;;;;;5048080;28;20235;-70
2021/12/18 09:24:55;;;;;;;13.45;9.05;;;2.20;99.90;;;;;;5049851;28;20668;-71
2021/12/18 09:27:23;;;;;;;15.70;10.38;;;2.10;99.90;;;;;;5049952;28;20203;-71
2021/12/18 09:29:51;;;;;;;18.88;11.32;;;2.30;99.90;;;;;;5050268;28;20197;-72
2021/12/18 09:32:17;;;;;;;15.95;10.38;;;2.40;99.90;;;;;;5049947;28;20208;-70
2021/12/18 09:34:44;;;;;;;15.48;10.07;;;2.40;99.90;;;;;;5049818;28;20824;-71
2021/12/18 09:37:11;;;;;;;15.95;9.82;;;2.50;99.90;;;;;;5018873;28;20551;-71
2021/12/18 09:39:38;;;;;;;16.63;10.82;;;2.50;99.90;;;;;;5010315;28;20225;-71
2021/12/18 09:42:05;;;;;;;14.85;11.05;;;2.60;99.90;;;;;;5029987;28;20205;-70
2021/12/18 09:44:34;;;;;;;14.63;10.55;;;2.70;99.90;;;;;;5049465;28;20209;-70
2021/12/18 09:47:03;;;;;;;14.68;10.00;;;2.70;99.90;;;;;;5048442;28;20197;-72
2021/12/18 09:49:30;;;;;;;13.75;11.20;;;2.60;99.90;;;;;;5049911;28;20287;-72
2021/12/18 09:51:57;;;;;;;15.65;11.73;;;2.60;99.90;;;;;;5048715;28;20201;-71
2021/12/18 09:54:24;;;;;;;14.85;10.65;;;2.50;99.90;;;;;;5048967;28;20225;-71
2021/12/18 09:56:51;;;;;;;17.35;11.45;;;2.50;99.90;;;;;;5048640;28;20197;-70
2021/12/18 09:59:19;;;;;;;14.43;10.70;;;2.60;99.90;;;;;;5049414;28;20236;-71
2021/12/18 10:01:47;;;;;;;14.45;10.68;;;2.60;99.90;;;;;;5048213;28;20216;-71
2021/12/18 10:04:27;;;;;;;16.40;10.27;;;2.60;99.90;;;;;;5048867;28;20507;-70
2021/12/18 10:06:56;;;;;;;15.00;10.68;;;2.70;99.90;;;;;;5048529;28;20285;-70
2021/12/18 10:09:33;;;;;;;16.45;11.23;;;2.70;99.90;;;;;;5046954;28;20201;-71
2021/12/18 10:12:02;;;;;;;17.02;11.43;;;2.60;99.90;;;;;;5048180;28;20196;-72
2021/12/18 10:14:36;;;;;;;14.23;10.65;;;2.60;99.90;;;;;;5048213;28;20204;-72
2021/12/18 10:17:06;;;;;;;16.58;11.57;;;2.50;99.90;;;;;;5048587;28;20197;-71
2021/12/18 10:19:35;;;;;;;14.30;11.00;;;2.50;99.90;;;;;;5048740;28;20232;-76
2021/12/18 10:22:07;;;;;;;15.65;11.52;;;2.50;99.90;;;;;;5047509;28;20641;-74
2021/12/18 10:24:37;;;;;;;16.42;12.48;;;2.50;99.90;;;;;;5049123;28;20694;-73
2021/12/18 10:27:17;;;;;;;16.42;12.00;;;2.50;99.90;;;;;;5048363;28;20221;-73
2021/12/18 10:29:44;;;;;;;14.45;11.05;;;2.60;99.90;;;;;;5047794;28;20204;-73
2021/12/18 10:32:15;;;;;;;14.98;10.75;;;2.60;99.90;;;;;;5048016;28;20189;-73
2021/12/18 10:34:50;;;;;;;16.92;11.65;;;2.70;99.90;;;;;;5052267;28;20205;-74
2021/12/18 10:37:20;;;;;;;16.40;11.50;;;2.80;99.90;;;;;;5053058;28;20200;-75
2021/12/18 10:39:58;;;;;;;13.00;9.90;;;2.90;99.90;;;;;;5053277;28;20283;-74
2021/12/18 10:42:28;;;;;;;14.52;10.32;;;2.80;99.90;;;;;;5032740;28;20307;-74
2021/12/18 10:45:06;;;;;;;15.20;11.32;;;2.90;99.90;;;;;;5051808;28;20232;-73
2021/12/18 10:47:51;;;;;;;14.63;10.57;;;3.00;99.90;;;;;;5052567;28;20204;-73
2021/12/18 10:50:20;;;;;;;12.88;10.10;;;3.00;99.90;;;;;;5022568;28;20189;-74
2021/12/18 10:52:53;;;;;;;14.98;10.30;;;2.90;99.90;;;;;;5029581;28;20226;-74
2021/12/18 10:55:26;;;;;;;12.10;9.60;;;2.80;99.90;;;;;;5013397;28;20233;-74
2021/12/18 10:57:54;;;;;;;15.40;10.13;;;2.70;99.90;;;;;;5013537;28;20198;-74
2021/12/18 11:00:32;;;;;;;12.50;9.05;;;2.70;99.90;;;;;;5013471;28;20222;-74
2021/12/18 11:03:13;;;;;;;15.00;9.90;;;2.70;99.90;;;;;;5012937;28;20233;-74
2021/12/18 11:05:40;;;;;;;13.40;9.00;;;2.70;99.90;;;;;;5013920;28;20211;-74
2021/12/18 11:08:12;;;;;;;13.88;9.27;;;2.80;99.90;;;;;;5014279;28;20310;-75
2021/12/18 11:10:53;;;;;;;13.30;9.25;;;2.80;99.90;;;;;;5068061;22;20794;-73
2021/12/18 11:16:05;;;;;;;13.93;9.73;;;3.20;99.90;;;;;;5031704;28;20204;-75
2021/12/18 11:18:35;;;;;;;13.95;9.32;;;3.20;99.90;;;;;;5032756;28;20213;-74
2021/12/18 11:21:02;;;;;;;13.98;10.18;;;3.00;99.90;;;;;;5036119;28;20539;-74
2021/12/18 11:23:39;;;;;;;12.73;9.45;;;3.00;99.90;;;;;;5038752;28;20236;-74
2021/12/18 11:26:06;;;;;;;13.15;9.40;;;2.90;99.90;;;;;;5032215;28;20293;-75
2021/12/18 11:28:35;;;;;;;14.43;10.32;;;2.90;99.90;;;;;;5032915;28;20202;-75
2021/12/18 11:31:04;;;;;;;14.30;9.23;;;2.90;99.90;;;;;;5031221;28;20322;-75
2021/12/18 11:33:34;;;;;;;10.02;8.55;;;3.00;99.90;;;;;;5044569;28;20235;-74
2021/12/18 11:36:03;;;;;;;14.27;10.43;;;3.20;99.90;;;;;;5035135;28;20210;-74
2021/12/18 11:38:31;;;;;;;14.07;9.70;;;3.10;99.90;;;;;;5039316;28;20208;-74
2021/12/18 11:40:58;;;;;;;13.80;9.95;;;3.10;99.90;;;;;;5031493;28;20232;-74
2021/12/18 11:43:35;;;;;;;13.32;9.82;;;3.10;99.90;;;;;;5031454;28;20221;-74
2021/12/18 11:46:03;;;;;;;13.30;9.95;;;3.00;99.90;;;;;;5030716;28;20205;-74
2021/12/18 11:48:56;;;;;;;12.35;9.20;;;3.10;99.90;;;;;;5032007;28;20228;-74
2021/12/18 11:51:23;;;;;;;13.77;9.27;;;3.20;99.90;;;;;;5031527;28;20581;-75
2021/12/18 11:53:50;;;;;;;12.95;9.52;;;3.20;99.90;;;;;;5031294;28;20236;-74
2021/12/18 11:56:17;;;;;;;11.60;9.50;;;3.30;99.90;;;;;;5031693;28;20208;-75
2021/12/18 11:58:46;;;;;;;13.60;9.13;;;3.30;99.90;;;;;;5032024;28;20201;-75
2021/12/18 12:01:20;;;;;;;11.65;9.07;;;3.30;99.90;;;;;;5031353;28;20224;-75
2021/12/18 12:03:57;;;;;;;13.55;9.63;;;3.20;99.90;;;;;;5031594;28;20217;-75
2021/12/18 12:06:30;;;;;;;11.60;9.40;;;3.20;99.90;;;;;;5031662;28;20543;-75
2021/12/18 12:09:15;;;;;;;11.95;8.48;;;3.20;99.90;;;;;;5037754;28;20202;-75
2021/12/18 12:11:51;;;;;;;12.70;8.77;;;3.00;99.90;;;;;;5038109;28;20229;-75
2021/12/18 12:14:20;;;;;;;11.90;8.90;;;3.00;99.90;;;;;;5031637;28;20217;-75
2021/12/18 12:17:15;;;;;;;12.10;9.48;;;3.00;99.90;;;;;;5030580;28;20198;-75
2021/12/18 12:19:46;;;;;;;13.93;10.38;;;3.00;99.90;;;;;;5031482;28;20290;-75
2021/12/18 12:22:53;;;;;;;12.95;9.52;;;2.90;99.90;;;;;;5031524;28;20201;-75
2021/12/18 12:25:39;;;;;;;12.52;9.50;;;2.90;99.90;;;;;;5032218;28;20451;-75
2021/12/18 12:28:07;;;;;;;17.08;9.57;;;2.90;99.90;;;;;;5030163;28;20197;-75
2021/12/18 12:30:42;;;;;;;11.90;9.80;;;3.00;99.90;;;;;;5047441;28;20659;-75
2021/12/18 12:33:12;;;;;;;14.45;10.63;;;3.10;99.90;;;;;;5030423;28;20221;-75
2021/12/18 12:36:04;;;;;;;11.98;10.00;;;3.10;99.90;;;;;;5035765;28;20559;-75
2021/12/18 12:38:34;;;;;;;12.43;9.43;;;3.20;99.90;;;;;;5033940;28;20208;-75
2021/12/18 12:41:29;;;;;;;10.77;9.18;;;3.40;99.90;;;;;;5029778;28;20226;-75
2021/12/18 12:43:59;;;;;;;12.60;9.70;;;3.50;99.90;;;;;;5034277;28;20224;-74
2021/12/18 12:46:26;;;;;;;11.23;9.93;;;3.60;99.90;;;;;;5034098;28;20202;-74
2021/12/18 12:49:06;;;;;;;14.85;10.57;;;3.60;99.90;;;;;;5043948;28;20202;-74
2021/12/18 12:52:02;;;;;;;17.00;10.60;;;3.70;99.90;;;;;;5030814;28;20213;-74
2021/12/18 12:54:52;;;;;;;14.75;10.25;;;3.80;99.90;;;;;;5031059;28;20206;-76
2021/12/18 12:57:46;;;;;;;12.90;10.00;;;3.80;99.90;;;;;;5029564;28;20202;-74
2021/12/18 13:00:42;;;;;;;13.40;9.57;;;4.00;99.90;;;;;;5036315;28;20228;-74
2021/12/18 13:03:13;;;;;;;10.80;9.20;;;4.20;99.90;;;;;;5030761;28;20240;-75
2021/12/18 13:05:49;;;;;;;11.57;9.35;;;4.30;99.90;;;;;;5029778;28;20224;-75
2021/12/18 13:08:18;;;;;;;10.68;8.77;;;4.30;99.90;;;;;;5032114;28;20589;-74
2021/12/18 13:10:47;;;;;;;15.65;10.35;;;4.40;99.90;;;;;;5028015;28;20519;-74
2021/12/18 13:13:19;;;;;;;13.50;10.02;;;4.40;99.90;;;;;;5027504;28;20271;-75
2021/12/18 13:15:48;;;;;;;14.27;10.48;;;4.50;99.90;;;;;;5030392;28;20202;-74
2021/12/18 13:18:15;;;;;;;20.25;13.13;;;4.60;99.90;;;;;;5028887;28;20202;-76
2021/12/18 13:20:43;;;;;;;12.50;9.40;;;4.80;99.90;;;;;;5029544;28;20594;-73
2021/12/18 13:23:14;;;;;;;10.07;8.65;;;4.80;99.90;;;;;;5029877;28;20218;-73